Time;durP1;ratioP1;P1;durP2;ratioP2;P2;SDS_P1;SDS_P2;PMS_P1;PMS_P2;Temp;Humidity;BMP_temperature;BMP_pressure;BME280_temperature;BME280_humidity;BME280_pressure;Samples;Min_cycle;Max_cycle;Signal;HPM_P1;HPM_P2
2023/05/09 00:00:50;;;;;;;;;;;;;;;9.68;73.96;100303.56;5023012;28;20493;-69
2023/05/09 00:03:15;;;;;;;;;;;;;;;9.73;74.13;100327.06;5022489;28;19972;-69
2023/05/09 00:05:41;;;;;;;7.13;2.50;;;;;;;9.54;74.31;100260.78;5020992;28;20107;-70
2023/05/09 00:08:06;;;;;;;6.57;2.60;;;;;;;9.55;74.85;100327.22;5022123;28;20475;-69
2023/05/09 00:10:31;;;;;;;3.07;2.50;;;;;;;9.54;74.89;100301.56;5022485;28;20473;-69
2023/05/09 00:12:57;;;;;;;5.50;2.53;;;;;;;9.56;74.72;100306.75;5022143;28;20503;-70
2023/05/09 00:15:24;;;;;;;3.97;2.85;;;;;;;9.53;75.07;100329.25;5022764;28;20124;-70
2023/05/09 00:17:50;;;;;;;5.88;2.78;;;;;;;9.51;74.48;100257.44;5012952;28;20420;-69
2023/05/09 00:20:15;;;;;;;3.72;2.55;;;;;;;9.51;75.03;100292.09;5034856;28;20205;-69
2023/05/09 00:22:41;;;;;;;2.83;2.40;;;;;;;9.50;75.27;100286.91;5021004;28;20037;-70
2023/05/09 00:25:10;;;;;;;4.95;2.83;;;;;;;9.59;74.48;100267.25;5020801;28;20028;-69
2023/05/09 00:27:36;;;;;;;3.53;2.30;;;;;;;9.68;73.71;100204.94;5022619;28;20075;-70
2023/05/09 00:30:03;;;;;;;3.53;2.78;;;;;;;9.66;73.91;100201.63;5021217;28;20082;-69
2023/05/09 00:32:29;;;;;;;4.13;2.45;;;;;;;9.63;73.99;100201.13;5020446;28;20207;-69
2023/05/09 00:34:55;;;;;;;5.45;2.70;;;;;;;9.65;73.52;100141.31;5020561;28;20026;-69
2023/05/09 00:37:20;;;;;;;4.20;2.38;;;;;;;9.65;73.46;100146.66;5022571;28;20369;-69
2023/05/09 00:39:47;;;;;;;3.10;2.20;;;;;;;9.72;73.06;100120.16;5005661;28;20521;-69
2023/05/09 00:42:12;;;;;;;;;;;;;;;9.66;73.47;100136.81;5036756;28;20272;-70
2023/05/09 00:44:37;;;;;;;;;;;;;;;9.62;73.70;100120.34;5021521;28;20015;-70
2023/05/09 00:47:03;;;;;;;4.53;2.77;;;;;;;9.56;73.85;100125.53;5021973;28;19916;-70
2023/05/09 00:49:28;;;;;;;4.23;3.27;;;;;;;9.56;73.76;100104.22;5033409;28;20053;-70
2023/05/09 00:51:54;;;;;;;4.53;2.57;;;;;;;9.46;74.16;100121.22;5036709;28;20049;-70
2023/05/09 00:54:20;;;;;;;;;;;;;;;9.54;74.01;100149.69;5035160;28;20101;-69
2023/05/09 00:56:45;;;;;;;;;;;;;;;9.51;73.85;100102.88;5039145;28;19913;-69
2023/05/09 00:59:11;;;;;;;3.43;2.80;;;;;;;9.50;74.10;100127.03;5026320;28;20002;-69
2023/05/09 01:01:36;;;;;;;3.38;2.45;;;;;;;9.54;73.47;100100.88;5008522;28;20043;-69
2023/05/09 01:04:02;;;;;;;5.30;2.70;;;;;;;9.53;73.57;100089.41;5023883;28;20751;-69
2023/05/09 01:07:01;;;;;;;8.90;2.80;;;;;;;9.49;73.92;100099.56;5024701;28;20029;-70
2023/05/09 01:09:56;;;;;;;4.28;2.60;;;;;;;9.41;74.45;100122.72;5041179;28;20045;-69
2023/05/09 01:12:34;;;;;;;6.15;3.60;;;;;;;9.39;74.93;100194.00;4991302;28;20111;-69
2023/05/09 01:15:13;;;;;;;3.92;2.45;;;;;;;9.42;74.69;100143.88;5021799;28;20034;-69
2023/05/09 01:17:44;;;;;;;5.95;3.05;;;;;;;9.45;74.78;100161.34;5023177;28;20107;-69
2023/05/09 01:20:21;;;;;;;4.10;3.20;;;;;;;9.35;75.18;100161.53;5023735;28;20052;-70
2023/05/09 01:22:54;;;;;;;4.93;2.60;;;;;;;9.30;75.39;100175.38;5023170;28;20043;-71
2023/05/09 01:25:38;;;;;;;6.57;3.05;;;;;;;9.28;75.78;100206.66;5030620;28;20041;-70
2023/05/09 01:28:12;;;;;;;3.00;2.58;;;;;;;9.28;75.93;100203.16;5039941;28;20034;-70
2023/05/09 01:30:39;;;;;;;8.32;3.28;;;;;;;9.24;76.21;100218.63;5028592;28;20037;-69
2023/05/09 01:33:06;;;;;;;4.72;3.03;;;;;;;9.21;77.25;100292.75;5023038;28;20052;-70
2023/05/09 01:35:36;;;;;;;8.43;3.05;;;;;;;9.15;76.50;100224.13;5037894;28;20543;-69
2023/05/09 01:38:10;;;;;;;6.72;3.30;;;;;;;9.16;76.78;100242.63;5024940;28;20037;-70
2023/05/09 01:40:39;;;;;;;7.25;3.15;;;;;;;9.16;77.11;100285.25;5028739;28;20037;-70
2023/05/09 01:43:08;;;;;;;5.40;3.50;;;;;;;9.15;77.13;100272.06;5023318;28;20053;-70
2023/05/09 01:45:37;;;;;;;10.57;3.65;;;;;;;9.07;77.36;100268.41;5027222;28;20048;-70
2023/05/09 01:48:05;;;;;;;7.90;3.75;;;;;;;9.04;77.24;100238.63;5023306;28;20074;-70
2023/05/09 01:50:34;;;;;;;5.07;3.50;;;;;;;9.02;77.59;100270.72;5024152;28;20037;-70
2023/05/09 01:53:00;;;;;;;6.38;3.70;;;;;;;9.05;77.89;100290.88;5026778;28;20124;-69
2023/05/09 01:55:30;;;;;;;5.32;3.17;;;;;;;8.99;78.15;100296.84;5029393;28;20523;-68
2023/05/09 01:57:57;;;;;;;5.28;3.28;;;;;;;8.97;78.09;100285.56;5037172;28;20111;-70
2023/05/09 02:00:24;;;;;;;6.72;3.50;;;;;;;8.91;78.54;100302.16;5029726;28;20025;-69
2023/05/09 02:02:50;;;;;;;;;;;;;;;8.85;79.15;100330.28;5026508;28;20034;-70
2023/05/09 02:05:17;;;;;;;3.67;3.08;;;;;;;8.84;79.42;100358.69;5039641;28;19917;-70
2023/05/09 02:07:43;;;;;;;;;;;;;;;8.87;79.91;100385.03;5027490;28;20095;-69
2023/05/09 02:10:10;;;;;;;6.13;3.53;;;;;;;8.86;80.16;100387.84;5035132;28;20313;-70
2023/05/09 02:12:36;;;;;;;4.22;3.05;;;;;;;8.76;80.71;100427.06;5038905;28;20096;-70
2023/05/09 02:15:02;;;;;;;5.47;3.63;;;;;;;8.71;81.17;100440.84;5021738;28;20026;-69
2023/05/09 02:17:29;;;;;;;4.25;3.28;;;;;;;8.70;81.83;100487.06;5028548;28;20041;-69
2023/05/09 02:19:55;;;;;;;6.60;3.40;;;;;;;8.64;82.14;100498.34;5021440;28;20069;-69
2023/05/09 02:22:21;;;;;;;7.55;4.15;;;;;;;8.63;82.42;100496.66;5028884;28;20411;-70
2023/05/09 02:24:46;;;;;;;8.15;3.47;;;;;;;8.57;83.02;100515.91;5024119;28;20469;-70
2023/05/09 02:27:13;;;;;;;5.90;3.63;;;;;;;8.49;83.62;100539.81;5039322;28;20476;-69
2023/05/09 02:30:01;;;;;;;6.78;3.35;;;;;;;8.40;84.26;100554.84;5027193;28;20775;-71
2023/05/09 02:32:30;;;;;;;9.07;3.70;;;;;;;8.33;84.99;100577.69;5020713;28;20632;-70
2023/05/09 02:34:57;;;;;;;5.60;3.90;;;;;;;8.33;85.36;100581.19;5024267;28;20084;-70
2023/05/09 02:37:24;;;;;;;7.03;3.58;;;;;;;8.31;86.25;100635.53;5006025;28;20067;-70
2023/05/09 02:39:49;;;;;;;5.82;3.83;;;;;;;8.27;86.65;100634.19;5036405;28;20436;-69
2023/05/09 02:42:20;;;;;;;6.07;3.83;;;;;;;8.24;87.48;100675.19;5038406;28;20045;-70
2023/05/09 02:44:45;;;;;;;7.55;4.03;;;;;;;8.19;87.98;100674.81;5025852;28;20029;-69
2023/05/09 02:47:11;;;;;;;6.03;4.13;;;;;;;8.06;88.82;100658.38;5022558;28;20556;-71
2023/05/09 02:49:36;;;;;;;7.43;4.10;;;;;;;8.07;89.83;100715.88;5026515;28;20563;-70
2023/05/09 02:52:03;;;;;;;6.40;3.42;;;;;;;8.13;91.09;100782.63;5036305;28;20468;-70
2023/05/09 02:54:28;;;;;;;6.47;3.97;;;;;;;8.11;91.50;100783.75;5027971;28;20033;-70
2023/05/09 02:56:54;;;;;;;6.33;4.07;;;;;;;8.06;92.12;100773.53;5023476;28;20058;-70
2023/05/09 02:59:20;;;;;;;8.45;3.95;;;;;;;8.01;93.40;100805.88;5012800;28;20030;-71
2023/05/09 03:01:45;;;;;;;8.53;4.00;;;;;;;7.93;94.01;100789.81;5032676;28;20026;-71
2023/05/09 03:04:11;;;;;;;8.00;4.87;;;;;;;7.85;94.56;100784.38;5021373;28;20103;-71
2023/05/09 03:06:36;;;;;;;6.00;4.20;;;;;;;7.87;95.17;100790.41;5027630;28;20332;-70
2023/05/09 03:09:02;;;;;;;4.83;3.60;;;;;;;7.85;95.85;100805.66;5039721;28;20037;-69
2023/05/09 03:11:29;;;;;;;7.38;4.30;;;;;;;7.90;96.39;100806.06;5038724;28;20075;-69
2023/05/09 03:13:55;;;;;;;6.88;4.15;;;;;;;7.82;96.60;100782.84;5020254;28;20123;-70
2023/05/09 03:16:20;;;;;;;6.00;4.03;;;;;;;7.71;97.74;100808.75;5028602;28;20025;-70
2023/05/09 03:18:46;;;;;;;6.82;4.18;;;;;;;7.71;98.68;100819.38;5038521;28;20285;-70
2023/05/09 03:21:11;;;;;;;6.63;4.27;;;;;;;7.75;99.15;100834.03;5038996;28;20381;-70
2023/05/09 03:23:38;;;;;;;7.77;4.83;;;;;;;7.70;100.00;100844.28;5026426;28;20450;-69
2023/05/09 03:26:03;;;;;;;5.28;4.38;;;;;;;7.58;100.00;100824.97;5024668;28;20768;-70
2023/05/09 03:28:28;;;;;;;11.80;5.50;;;;;;;7.56;100.00;100851.72;5027661;28;20095;-70
2023/05/09 03:30:58;;;;;;;8.55;4.60;;;;;;;7.49;100.00;100874.50;5025227;28;20687;-73
2023/05/09 03:33:25;;;;;;;7.30;5.30;;;;;;;7.47;100.00;100871.13;5020776;28;20033;-72
2023/05/09 03:35:51;;;;;;;7.03;4.72;;;;;;;7.41;100.00;100866.38;5004975;28;20087;-71
2023/05/09 03:38:17;;;;;;;6.40;5.07;;;;;;;7.49;100.00;100910.84;5021545;28;20072;-72
2023/05/09 03:40:42;;;;;;;8.27;5.00;;;;;;;7.41;100.00;100895.59;5025460;28;20189;-72
2023/05/09 03:43:09;;;;;;;5.90;5.10;;;;;;;7.31;100.00;100889.44;5006104;28;20170;-72
2023/05/09 03:45:37;;;;;;;8.27;4.65;;;;;;;7.33;100.00;100938.78;5025809;28;20502;-72
2023/05/09 03:48:07;;;;;;;12.07;5.32;;;;;;;7.36;100.00;100938.50;5020991;28;20170;-69
2023/05/09 03:50:33;;;;;;;5.72;4.72;;;;;;;7.29;100.00;100955.13;5026722;28;20040;-69
2023/05/09 03:52:59;;;;;;;10.20;5.35;;;;;;;7.32;100.00;100953.03;5020805;28;20025;-70
2023/05/09 03:55:24;;;;;;;7.50;6.32;;;;;;;7.23;100.00;100956.50;5026121;28;20034;-73
2023/05/09 03:57:50;;;;;;;7.77;5.07;;;;;;;7.35;100.00;100997.94;5018529;28;20032;-72
2023/05/09 04:00:16;;;;;;;8.90;4.97;;;;;;;7.40;100.00;100966.47;5034735;28;20056;-71
2023/05/09 04:02:50;;;;;;;8.25;5.40;;;;;;;7.38;100.00;100941.03;5023457;28;20135;-72
2023/05/09 04:05:25;;;;;;;7.28;4.78;;;;;;;7.37;100.00;100960.59;5030517;28;20141;-72
2023/05/09 04:07:51;;;;;;;6.97;4.75;;;;;;;7.29;100.00;100950.66;5023687;28;20578;-69
2023/05/09 04:10:17;;;;;;;7.28;4.68;;;;;;;7.36;100.00;100950.94;5036041;28;20097;-71
2023/05/09 04:12:43;;;;;;;9.20;5.25;;;;;;;7.40;100.00;100941.75;5023630;28;20046;-70
2023/05/09 04:15:09;;;;;;;9.55;6.13;;;;;;;7.40;100.00;100928.47;5005990;28;20476;-73
2023/05/09 04:17:35;;;;;;;8.40;6.03;;;;;;;7.34;100.00;100934.31;5021896;28;20040;-70
2023/05/09 04:20:01;;;;;;;9.43;4.80;;;;;;;7.32;100.00;100937.09;5022568;28;20074;-71
2023/05/09 04:22:27;;;;;;;8.52;5.10;;;;;;;7.30;100.00;100939.03;5030803;28;20468;-71
2023/05/09 04:24:52;;;;;;;8.47;5.23;;;;;;;7.33;100.00;100946.75;5035855;28;20059;-73
2023/05/09 04:27:18;;;;;;;8.57;5.97;;;;;;;7.41;100.00;100962.00;5037524;28;20038;-72
2023/05/09 04:29:44;;;;;;;13.43;5.95;;;;;;;7.47;100.00;100964.13;5020897;28;20036;-72
2023/05/09 04:32:09;;;;;;;11.68;6.55;;;;;;;7.48;100.00;100930.41;5037194;28;20040;-73
2023/05/09 04:34:35;;;;;;;8.98;6.80;;;;;;;7.45;100.00;100904.97;5025791;28;20052;-72
2023/05/09 04:37:06;;;;;;;8.63;5.90;;;;;;;7.60;100.00;100930.13;5037660;28;20475;-72
2023/05/09 04:39:32;;;;;;;9.68;5.85;;;;;;;7.66;100.00;100918.13;5004482;28;20041;-71
2023/05/09 04:42:04;;;;;;;6.90;4.80;;;;;;;7.68;100.00;100915.31;5034105;28;20057;-70
2023/05/09 04:44:30;;;;;;;32.07;6.67;;;;;;;7.73;100.00;100898.00;5026302;28;20522;-71
2023/05/09 04:46:57;;;;;;;13.27;6.15;;;;;;;7.80;100.00;100892.97;5017736;28;20523;-69
2023/05/09 04:49:23;;;;;;;7.37;6.07;;;;;;;7.93;100.00;100904.13;5020868;28;20029;-70
2023/05/09 04:51:48;;;;;;;7.93;5.70;;;;;;;7.97;100.00;100868.31;5019925;28;20496;-71
2023/05/09 04:54:14;;;;;;;8.35;4.70;;;;;;;8.00;100.00;100862.69;5036043;28;20397;-71
2023/05/09 04:56:39;;;;;;;17.13;7.00;;;;;;;8.16;100.00;100853.28;5023645;28;20079;-70
2023/05/09 04:59:05;;;;;;;7.50;5.03;;;;;;;8.23;100.00;100833.94;5037025;28;20041;-71
2023/05/09 05:01:31;;;;;;;10.57;6.00;;;;;;;8.34;100.00;100806.34;5004337;28;20037;-70
2023/05/09 05:03:57;;;;;;;8.43;3.85;;;;;;;8.54;100.00;100806.25;5003669;28;20620;-70
2023/05/09 05:06:22;;;;;;;8.37;5.13;;;;;;;8.52;100.00;100704.47;5027379;28;20037;-69
2023/05/09 05:08:47;;;;;;;7.73;5.97;;;;;;;8.83;100.00;100710.28;5020400;28;20445;-71
2023/05/09 05:11:13;;;;;;;8.45;4.82;;;;;;;9.36;100.00;100781.31;5020444;28;20025;-71
2023/05/09 05:13:38;;;;;;;41.83;5.70;;;;;;;9.37;100.00;100553.84;5021755;28;20038;-70
2023/05/09 05:16:04;;;;;;;9.55;5.57;;;;;;;10.31;100.00;100616.84;5021591;28;20480;-70
2023/05/09 05:18:30;;;;;;;8.67;4.90;;;;;;;10.58;98.24;100385.31;5020517;28;20053;-71
2023/05/09 05:20:55;;;;;;;188.77;13.53;;;;;;;10.27;95.74;100147.72;5034332;28;20021;-70
2023/05/09 05:23:21;;;;;;;8.55;4.80;;;;;;;10.45;95.68;100257.75;5020496;28;20052;-70
2023/05/09 05:25:50;;;;;;;7.68;4.93;;;;;;;10.47;94.13;100162.31;5005086;28;20728;-70
2023/05/09 05:28:16;;;;;;;9.50;4.93;;;;;;;11.09;94.02;100310.16;5020401;28;20033;-71
2023/05/09 05:30:41;;;;;;;8.43;4.87;;;;;;;11.28;89.36;99983.66;5021951;28;20030;-71
2023/05/09 05:33:06;;;;;;;11.70;5.47;;;;;;;11.23;89.58;100036.00;5021377;28;20161;-70
2023/05/09 05:35:32;;;;;;;8.73;6.03;;;;;;;10.84;89.51;99983.66;5026309;28;20107;-69
2023/05/09 05:37:57;;;;;;;6.38;4.70;;;;;;;11.86;88.23;100125.50;5035707;28;20523;-71
2023/05/09 05:40:24;;;;;;;8.35;5.50;;;;;;;11.82;86.83;100044.81;5023413;28;20041;-71
2023/05/09 05:42:51;;;;;;;5.70;4.75;;;;;;;12.73;84.46;100005.97;5022616;28;20504;-70
2023/05/09 05:45:16;;;;;;;7.07;4.77;;;;;;;13.01;81.68;99862.09;5038777;28;20075;-69
2023/05/09 05:47:46;;;;;;;6.00;4.35;;;;;;;12.57;80.48;99667.03;5039767;28;20356;-71
2023/05/09 05:50:11;;;;;;;19.97;5.60;;;;;;;11.67;80.12;99471.84;5023491;28;20044;-70
2023/05/09 05:52:38;;;;;;;6.88;4.50;;;;;;;12.50;81.89;99945.44;5006859;28;20128;-71
2023/05/09 05:55:05;;;;;;;7.60;5.25;;;;;;;13.49;78.11;99745.97;5037175;28;20456;-71
2023/05/09 05:57:30;;;;;;;10.05;4.32;;;;;;;13.16;77.61;99692.28;5023093;28;20350;-70
2023/05/09 05:59:56;;;;;;;6.93;5.22;;;;;;;12.36;77.43;99454.72;5006821;28;20037;-70
2023/05/09 06:02:22;;;;;;;6.75;4.82;;;;;;;13.27;76.54;99641.63;5029805;28;20119;-69
2023/05/09 06:04:48;;;;;;;7.47;5.10;;;;;;;12.78;77.84;99714.25;5023114;28;20191;-70
2023/05/09 06:07:13;;;;;;;10.23;5.13;;;;;;;12.31;77.81;99623.09;5036921;28;20531;-70
2023/05/09 06:09:39;;;;;;;10.90;4.90;;;;;;;12.77;78.08;99788.44;5023096;28;20032;-71
2023/05/09 06:12:05;;;;;;;6.03;4.40;;;;;;;11.95;78.27;99589.44;5036461;28;20031;-71
2023/05/09 06:14:30;;;;;;;8.82;4.60;;;;;;;12.35;78.44;99778.78;5025716;28;20044;-71
2023/05/09 06:16:57;;;;;;;7.88;5.85;;;;;;;13.08;76.28;99691.44;5037630;28;20051;-71
2023/05/09 06:19:22;;;;;;;;;;;;;;;13.52;75.01;99675.81;5029190;28;20036;-70
2023/05/09 06:21:47;;;;;;;9.35;4.82;;;;;;;13.02;75.40;99638.69;5039027;28;19913;-71
2023/05/09 06:24:13;;;;;;;6.47;4.17;;;;;;;13.10;74.55;99576.84;5037333;28;20069;-71
2023/05/09 06:26:38;;;;;;;8.93;5.13;;;;;;;13.26;74.32;99553.34;5027986;28;20042;-70
2023/05/09 06:29:05;;;;;;;8.03;5.40;;;;;;;13.81;73.70;99654.94;5039198;28;20461;-70
2023/05/09 06:31:30;;;;;;;;;;;;;;;13.60;72.74;99497.78;5040106;28;20287;-70
2023/05/09 06:33:56;;;;;;;;;;;;;;;13.06;72.88;99403.31;5037913;28;19961;-72
2023/05/09 06:36:21;;;;;;;6.73;4.40;;;;;;;12.81;74.68;99590.69;5021570;28;20016;-71
2023/05/09 06:38:46;;;;;;;5.53;4.50;;;;;;;14.14;73.86;99891.03;5024019;28;20033;-73
2023/05/09 06:41:12;;;;;;;5.03;4.30;;;;;;;14.76;70.95;99674.81;5024144;28;20034;-69
2023/05/09 06:43:37;;;;;;;7.43;4.90;;;;;;;13.61;70.98;99362.69;5025405;28;20033;-72
2023/05/09 06:46:02;;;;;;;9.10;4.73;;;;;;;13.59;71.61;99456.75;5022467;28;20661;-70
2023/05/09 06:48:28;;;;;;;8.63;4.57;;;;;;;13.72;71.91;99563.97;5023965;28;20171;-72
2023/05/09 06:50:53;;;;;;;9.77;4.53;;;;;;;14.10;70.94;99581.97;5023629;28;20124;-70
2023/05/09 06:53:18;;;;;;;10.47;5.30;;;;;;;14.29;70.89;99600.88;5023440;28;20041;-70
2023/05/09 06:55:44;;;;;;;10.80;4.57;;;;;;;13.88;71.29;99570.72;5021984;28;20388;-70
2023/05/09 06:58:10;;;;;;;5.45;4.30;;;;;;;14.59;70.84;99713.16;5021151;28;20022;-71
2023/05/09 07:00:36;;;;;;;5.40;4.30;;;;;;;15.03;70.54;99833.22;5027147;28;20052;-72
2023/05/09 07:03:01;;;;;;;5.93;4.23;;;;;;;14.48;69.45;99508.63;5038431;28;20025;-72
2023/05/09 07:05:26;;;;;;;7.70;4.37;;;;;;;14.52;69.35;99487.53;5004335;28;20047;-68
2023/05/09 07:07:53;;;;;;;6.03;4.20;;;;;;;14.38;70.61;99657.84;5020857;28;20037;-68
2023/05/09 07:10:21;;;;;;;5.88;4.15;;;;;;;14.46;70.00;99602.00;5021983;28;20165;-70
2023/05/09 07:12:46;;;;;;;6.18;4.28;;;;;;;14.52;70.00;99595.78;5022196;28;20021;-70
2023/05/09 07:15:11;;;;;;;11.43;4.18;;;;;;;14.86;69.56;99671.63;5036453;28;20032;-69
2023/05/09 07:17:37;;;;;;;6.77;4.37;;;;;;;13.94;69.15;99282.78;5023472;28;20029;-69
2023/05/09 07:20:03;;;;;;;5.77;4.23;;;;;;;13.97;70.44;99546.31;5020742;28;20051;-69
2023/05/09 07:22:28;;;;;;;;;;;;;;;14.67;70.07;99713.69;5022129;28;20021;-70
2023/05/09 07:24:54;;;;;;;;;;;;;;;14.76;69.25;99621.06;5023047;28;19913;-70
2023/05/09 07:27:19;;;;;;;6.77;4.77;;;;;;;14.63;69.02;99607.72;5038558;28;19909;-71
2023/05/09 07:29:44;;;;;;;7.40;4.27;;;;;;;14.61;69.98;99719.94;5021429;28;20473;-69
2023/05/09 07:32:10;;;;;;;7.57;3.80;;;;;;;14.66;69.45;99657.53;5020451;28;20097;-70
2023/05/09 07:34:35;;;;;;;8.63;5.13;;;;;;;14.03;68.99;99408.63;5023057;28;20465;-70
2023/05/09 07:37:01;;;;;;;8.33;4.27;;;;;;;14.40;69.94;99682.59;5020370;28;20025;-70
2023/05/09 07:39:26;;;;;;;10.43;5.13;;;;;;;14.40;69.69;99639.63;5023492;28;20034;-69
2023/05/09 07:41:51;;;;;;;7.17;4.33;;;;;;;14.44;70.68;99737.53;5022940;28;20279;-69
2023/05/09 07:44:17;;;;;;;9.13;4.07;;;;;;;14.68;70.30;99798.66;5020972;28;20124;-68
2023/05/09 07:46:42;;;;;;;4.97;4.30;;;;;;;14.60;70.83;99782.75;5021650;28;20086;-70
2023/05/09 07:49:07;;;;;;;16.40;5.40;;;;;;;14.49;69.62;99611.50;5021133;28;20045;-70
2023/05/09 07:51:33;;;;;;;5.33;4.17;;;;;;;15.10;70.09;99866.28;5021522;28;20036;-70
2023/05/09 07:53:58;;;;;;;14.67;4.10;;;;;;;15.32;69.39;99847.16;5022049;28;20499;-70
2023/05/09 07:56:23;;;;;;;6.07;4.10;;;;;;;15.11;67.80;99539.97;5022654;28;20124;-69
2023/05/09 07:58:49;;;;;;;7.97;4.90;;;;;;;14.82;68.30;99508.38;5022624;28;20124;-70
2023/05/09 08:01:14;;;;;;;4.70;3.70;;;;;;;15.51;68.06;99770.06;5036980;28;20112;-70
2023/05/09 08:03:40;;;;;;;5.83;4.50;;;;;;;15.94;68.02;99828.53;5022113;28;20388;-70
2023/05/09 08:06:06;;;;;;;5.30;3.55;;;;;;;15.28;67.67;99544.75;5019773;28;20120;-71
2023/05/09 08:08:31;;;;;;;7.82;4.05;;;;;;;15.78;67.58;99733.00;5019811;28;20033;-70
2023/05/09 08:10:56;;;;;;;8.50;3.73;;;;;;;15.72;66.87;99583.22;5019425;28;20044;-69
2023/05/09 08:13:22;;;;;;;41.63;5.53;;;;;;;15.62;65.60;99346.97;5024558;28;20123;-68
2023/05/09 08:15:47;;;;;;;8.00;4.90;;;;;;;15.59;66.09;99445.09;5034813;28;20065;-70
2023/05/09 08:18:13;;;;;;;8.93;4.30;;;;;;;16.33;65.03;99567.97;5037715;28;20033;-70
2023/05/09 08:20:39;;;;;;;7.07;4.33;;;;;;;16.30;64.46;99484.94;5021260;28;20041;-70
2023/05/09 08:23:04;;;;;;;8.27;4.25;;;;;;;15.88;63.94;99230.06;5020203;28;20272;-70
2023/05/09 08:25:30;;;;;;;4.97;4.03;;;;;;;15.71;63.71;99186.91;5025115;28;20059;-69
2023/05/09 08:27:55;;;;;;;5.93;3.63;;;;;;;15.64;64.30;99229.22;5022148;28;20121;-70
2023/05/09 08:30:21;;;;;;;5.27;3.90;;;;;;;16.09;64.56;99437.81;5022383;28;20132;-70
2023/05/09 08:32:46;;;;;;;7.80;3.97;;;;;;;15.98;63.66;99286.00;5020294;28;20371;-70
2023/05/09 08:35:11;;;;;;;4.63;3.87;;;;;;;16.15;62.80;99216.09;5020517;28;20462;-69
2023/05/09 08:37:37;;;;;;;5.60;3.40;;;;;;;16.84;63.24;99569.28;5020940;28;20444;-69
2023/05/09 08:40:06;;;;;;;6.20;4.47;;;;;;;16.70;62.25;99306.44;5020613;28;20056;-70
2023/05/09 08:42:32;;;;;;;4.85;3.38;;;;;;;17.40;60.61;99329.69;5018997;28;20062;-69
2023/05/09 08:45:00;;;;;;;6.13;3.78;;;;;;;16.43;60.47;98927.16;5019155;28;20503;-70
2023/05/09 08:47:27;;;;;;;4.97;3.53;;;;;;;16.87;60.71;99178.78;5022007;28;20033;-70
2023/05/09 08:49:53;;;;;;;8.45;4.28;;;;;;;16.87;61.16;99270.44;5020425;28;20113;-71
2023/05/09 08:52:19;;;;;;;6.20;3.83;;;;;;;17.30;60.78;99320.34;5035014;28;20472;-71
2023/05/09 08:54:45;;;;;;;6.72;3.53;;;;;;;17.28;60.99;99306.28;5020383;28;20064;-71
2023/05/09 08:57:11;;;;;;;12.65;4.03;;;;;;;17.89;60.42;99498.25;5020699;28;20021;-71
2023/05/09 08:59:41;;;;;;;8.88;3.95;;;;;;;17.67;59.58;99287.50;5020740;28;20033;-70
2023/05/09 09:02:06;;;;;;;8.48;3.45;;;;;;;18.62;58.34;99398.41;5036485;28;20108;-69
2023/05/09 09:04:32;;;;;;;5.97;4.45;;;;;;;17.35;57.32;98695.72;5020619;28;20104;-69
2023/05/09 09:06:58;;;;;;;6.47;3.73;;;;;;;16.99;57.54;98665.75;5022125;28;20460;-71
2023/05/09 09:09:25;;;;;;;5.90;3.60;;;;;;;17.50;57.85;98976.44;5018851;28;20087;-71
2023/05/09 09:11:52;;;;;;;4.82;3.03;;;;;;;18.00;58.42;99268.91;5021741;28;20393;-70
2023/05/09 09:14:26;;;;;;;9.07;3.75;;;;;;;18.13;57.75;99193.75;5022225;28;20060;-72
2023/05/09 09:16:54;;;;;;;6.55;3.38;;;;;;;18.64;56.71;99106.28;5022630;28;20041;-70
2023/05/09 09:19:25;;;;;;;7.93;3.25;;;;;;;18.74;56.97;99282.06;5024476;28;20480;-71
2023/05/09 09:21:53;;;;;;;7.20;3.47;;;;;;;18.49;55.72;98937.50;5025172;28;20041;-69
2023/05/09 09:24:21;;;;;;;4.35;3.15;;;;;;;19.02;56.00;99167.50;5024028;28;20029;-71
2023/05/09 09:26:49;;;;;;;3.40;2.78;;;;;;;19.24;54.51;99002.38;5023706;28;20052;-71
2023/05/09 09:29:17;;;;;;;7.40;3.95;;;;;;;19.23;53.70;98886.34;5040385;28;20021;-71
2023/05/09 09:31:45;;;;;;;5.65;3.15;;;;;;;19.22;53.16;98763.75;5024104;28;20103;-71
2023/05/09 09:34:11;;;;;;;7.03;3.70;;;;;;;18.94;52.73;98602.81;5038126;28;20695;-71
2023/05/09 09:36:37;;;;;;;5.85;4.00;;;;;;;19.35;52.82;98873.38;5023797;28;20761;-70
2023/05/09 09:39:03;;;;;;;4.53;3.10;;;;;;;19.61;51.98;98755.16;5022510;28;20029;-71
2023/05/09 09:41:33;;;;;;;7.43;3.28;;;;;;;18.94;52.56;98655.03;5024078;28;20430;-70
2023/05/09 09:44:04;;;;;;;7.45;3.08;;;;;;;18.89;51.01;98392.75;5024540;28;20052;-71
2023/05/09 09:46:40;;;;;;;4.72;3.10;;;;;;;19.19;51.24;98550.63;5023992;28;20038;-71
2023/05/09 09:49:08;;;;;;;6.43;3.30;;;;;;;19.23;50.79;98545.50;5023300;28;20037;-71
2023/05/09 09:51:34;;;;;;;5.85;3.08;;;;;;;18.77;51.05;98376.03;5023665;28;20073;-70
2023/05/09 09:54:01;;;;;;;6.00;2.95;;;;;;;19.24;51.11;98625.56;5023098;28;20042;-71
2023/05/09 09:56:44;;;;;;;3.90;2.80;;;;;;;19.69;50.72;98684.28;5023602;28;20561;-69
2023/05/09 09:59:11;;;;;;;6.57;2.70;;;;;;;18.82;50.55;98297.63;5037455;28;20101;-70
2023/05/09 10:02:05;;;;;;;3.60;2.92;;;;;;;19.69;50.00;98642.84;5040015;28;20121;-71
2023/05/09 10:04:33;;;;;;;5.13;2.93;;;;;;;19.63;49.87;98596.00;5019614;28;20086;-71
2023/05/09 10:07:04;;;;;;;5.00;3.13;;;;;;;18.93;49.57;98255.94;5023352;28;20280;-71
2023/05/09 10:09:31;;;;;;;5.38;2.63;;;;;;;19.02;49.83;98287.81;5023067;28;20076;-71
2023/05/09 10:12:02;;;;;;;4.63;3.08;;;;;;;19.54;49.05;98427.97;5021336;28;20087;-70
2023/05/09 10:14:30;;;;;;;6.32;3.13;;;;;;;19.63;48.21;98237.94;5022724;28;20117;-71
2023/05/09 10:16:56;;;;;;;6.28;3.03;;;;;;;19.47;48.12;98196.66;5023021;28;20022;-71
2023/05/09 10:19:23;;;;;;;3.63;3.25;;;;;;;19.13;48.03;98086.59;5022998;28;20064;-70
2023/05/09 10:21:54;;;;;;;5.57;3.25;;;;;;;19.37;48.75;98341.75;5022173;28;20033;-71
2023/05/09 10:24:32;;;;;;;11.75;2.88;;;;;;;19.38;47.76;98163.97;5033606;28;20038;-71
2023/05/09 10:27:04;;;;;;;5.10;3.05;;;;;;;19.98;47.41;98351.41;5023112;28;20399;-72
2023/05/09 10:29:33;;;;;;;5.88;2.90;;;;;;;19.15;47.66;98035.69;5026066;28;20044;-70
2023/05/09 10:32:08;;;;;;;4.43;3.00;;;;;;;20.00;47.43;98397.16;5021050;28;20029;-72
2023/05/09 10:34:39;;;;;;;5.05;2.78;;;;;;;20.09;46.63;98243.81;5023896;28;20095;-70
2023/05/09 10:37:07;;;;;;;4.28;2.67;;;;;;;20.08;46.96;98328.84;5022864;28;20159;-71
2023/05/09 10:39:32;;;;;;;7.75;2.67;;;;;;;19.79;47.52;98299.81;5023026;28;20097;-71
2023/05/09 10:41:59;;;;;;;3.65;2.85;;;;;;;20.33;47.24;98429.97;5022482;28;20575;-71
2023/05/09 10:44:25;;;;;;;3.95;2.83;;;;;;;20.38;46.22;98251.09;5027654;28;20068;-71
2023/05/09 10:46:51;;;;;;;6.00;2.80;;;;;;;19.95;46.21;98035.16;5021154;28;20061;-71
2023/05/09 10:49:17;;;;;;;3.22;2.65;;;;;;;20.24;46.66;98300.53;5036165;28;20033;-70
2023/05/09 10:51:42;;;;;;;14.90;4.78;;;;;;;19.53;46.09;97835.66;5023711;28;20048;-71
2023/05/09 10:54:24;;;;;;;4.33;3.00;;;;;;;19.96;46.47;98168.63;5021935;28;20025;-71
2023/05/09 10:56:50;;;;;;;3.00;2.60;;;;;;;20.30;47.04;98435.94;5024000;28;20061;-71
2023/05/09 10:59:41;;;;;;;4.20;2.83;;;;;;;19.64;47.64;98210.56;5022627;28;20086;-71
2023/05/09 11:02:14;;;;;;;3.40;2.63;;;;;;;20.15;48.02;98528.97;5020193;28;20030;-69
2023/05/09 11:04:40;;;;;;;6.78;2.97;;;;;;;21.25;47.92;98977.28;5022097;28;20060;-70
2023/05/09 11:07:25;;;;;;;5.23;3.30;;;;;;;20.39;46.49;98279.78;5019295;28;20619;-72
2023/05/09 11:10:16;;;;;;;16.45;5.38;;;;;;;19.96;47.29;98225.50;5023415;28;20040;-72
2023/05/09 11:12:59;;;;;;;5.78;2.75;;;;;;;20.36;46.42;98237.00;5029462;28;20050;-69
2023/05/09 11:15:26;;;;;;;4.30;3.55;;;;;;;19.64;45.99;97885.81;5000362;28;20092;-71
2023/05/09 11:18:09;;;;;;;4.88;2.63;;;;;;;20.06;45.81;98070.22;5017988;28;20071;-70
2023/05/09 11:20:41;;;;;;;6.00;2.85;;;;;;;20.34;45.35;98055.75;5027969;28;20030;-72
2023/05/09 11:23:09;;;;;;;5.20;2.72;;;;;;;21.25;44.56;98263.59;5020125;28;20086;-71
2023/05/09 11:25:34;;;;;;;10.00;2.70;;;;;;;21.33;45.33;98495.50;5024016;28;20075;-71
2023/05/09 11:28:01;;;;;;;5.75;3.10;;;;;;;21.00;45.58;98338.81;5021917;28;20100;-72
2023/05/09 11:30:42;;;;;;;3.88;2.83;;;;;;;21.59;45.53;98558.53;5022059;28;20025;-70
2023/05/09 11:33:26;;;;;;;7.85;3.20;;;;;;;20.84;45.69;98275.81;5020930;28;20102;-72
2023/05/09 11:36:17;;;;;;;3.38;2.90;;;;;;;20.55;45.57;98077.16;5019452;28;20037;-70